Flight Information

DEPARTURE
MOJAVE, CA
Elevation:
2801
Runways:
4/22 - 4747x60 - ASPH-E
8/26 - 7049x100 - ASPH-G
12/30 - 12503x200 - ASPH-E
Ground:
123.9
Tower:
127.6
DESTINATION
,
Elevation:
TPA:
1000 (est.)


6762.8 NM73° True-14° Var58° HDG

Flight Plan:
(click to file on line)

1. Type
2. Aircraft Identification
3. Aircraft Type / Special Equipment
4. True Airspeed
kts
5. Departure Airport
(ICAO code)
6. Arriving Airport
(ICAO code)
7. Cruising Altitude
ft
8. Alternate Airport
(ICAO code)
9. Route of Flight
10. Remarks


00:00:00 Departure ATIS: Destination ATIS:

Clearance Limit:
Route:
Altitude: Expect in minutes
Frequency:
Transponder: (7500 Hijack / 7600 Lost Comms / 7700 Emergency)


KMHV 080120Z AUTO 02010KT 3SM BR BKN030 OVC036 08/08 A2994 RMK A01
Time: 2020-04-08T01:20:00Z
1586310551
Winds: 20 @ 10 kts
Visibility: 3.0 sm
Clouds (AGL): BKN 3000
OVC 3600
Temperature: 8.0 C
Dew Point: 8.0 C
Pressure: 29.940945 in Hgbr


Notes:

Data extracted from FAA Digital Chart Supplement. Effective: 0901Z Thursday, Mar 26, 2020 to 0901Z Thursday, May 21, 2020
Current ATIS data is provided courtisy of PilotEdge.